createdAt,value
2017-10-09T00:00:16.576Z,3.27
2017-10-09T00:02:47.355Z,3.33
2017-10-09T00:05:14.817Z,3.50
2017-10-09T00:07:42.263Z,3.03
2017-10-09T00:10:09.724Z,3.47
2017-10-09T00:12:38.708Z,2.80
2017-10-09T00:15:07.412Z,3.40
2017-10-09T00:17:34.862Z,2.60
2017-10-09T00:20:02.311Z,3.00
2017-10-09T00:22:33.717Z,3.70
2017-10-09T00:25:01.167Z,3.40
2017-10-09T00:27:29.482Z,3.30
2017-10-09T00:29:56.943Z,3.47
2017-10-09T00:32:24.836Z,3.57
2017-10-09T00:34:52.529Z,4.47
2017-10-09T00:37:19.966Z,4.17
2017-10-09T00:39:47.795Z,4.00
2017-10-09T00:42:16.173Z,5.00
2017-10-09T00:44:43.627Z,3.60
2017-10-09T00:47:11.611Z,3.40
2017-10-09T00:49:39.323Z,4.80
2017-10-09T00:52:09.904Z,3.83
2017-10-09T00:54:37.349Z,3.93
2017-10-09T00:57:06.268Z,4.07
2017-10-09T00:59:33.729Z,3.80
2017-10-09T01:02:02.424Z,3.77
2017-10-09T01:04:29.870Z,3.67
2017-10-09T01:06:58.265Z,4.23
2017-10-09T01:09:28.778Z,5.23
2017-10-09T01:11:56.249Z,4.47
2017-10-09T01:14:33.868Z,3.33
2017-10-09T01:17:01.404Z,2.90
2017-10-09T01:19:28.860Z,2.83
2017-10-09T01:22:00.727Z,3.60
2017-10-09T01:24:28.963Z,3.40
2017-10-09T01:26:56.664Z,3.73
2017-10-09T01:29:24.124Z,4.73
2017-10-09T01:31:51.580Z,3.70
2017-10-09T01:34:22.132Z,4.87
2017-10-09T01:36:49.598Z,4.30
2017-10-09T01:39:35.720Z,4.10
2017-10-09T01:42:03.379Z,3.60
2017-10-09T01:53:28.421Z,4.60
2017-10-09T01:56:04.656Z,4.33
2017-10-09T02:01:47.202Z,4.60
2017-10-09T02:10:53.076Z,5.13
2017-10-09T02:13:20.563Z,5.60
2017-10-09T02:15:48.030Z,4.70
2017-10-09T02:18:15.488Z,4.97
2017-10-09T02:20:43.127Z,5.27
2017-10-09T02:23:10.857Z,4.97
2017-10-09T02:25:40.499Z,4.60
2017-10-09T02:28:08.907Z,5.00
2017-10-09T02:30:36.915Z,6.13
2017-10-09T02:33:08.497Z,6.23
2017-10-09T02:35:35.989Z,7.13
2017-10-09T02:46:49.785Z,6.30
2017-10-09T02:49:18.365Z,6.20
2017-10-09T02:51:48.869Z,5.50
2017-10-09T02:54:24.733Z,5.40
2017-10-09T02:56:59.001Z,4.83
2017-10-09T02:59:26.634Z,6.27
2017-10-09T03:01:55.703Z,5.60
2017-10-09T03:04:23.179Z,5.57
2017-10-09T03:07:02.892Z,5.53
2017-10-09T03:12:43.687Z,6.53
2017-10-09T03:15:16.845Z,9.20
2017-10-09T03:17:45.052Z,6.47
2017-10-09T03:20:12.713Z,6.60
2017-10-09T03:36:35.638Z,6.07
2017-10-09T03:39:03.141Z,6.47
2017-10-09T03:41:31.633Z,6.63
2017-10-09T03:43:59.123Z,6.80
2017-10-09T03:46:27.401Z,7.13
2017-10-09T03:48:54.915Z,6.60
2017-10-09T03:51:22.376Z,7.20
2017-10-09T03:56:32.583Z,6.50
2017-10-09T03:59:00.065Z,7.40
2017-10-09T04:01:27.516Z,7.47
2017-10-09T04:03:54.968Z,7.73
2017-10-09T04:06:22.449Z,7.47
2017-10-09T04:08:57.497Z,7.43
2017-10-09T04:11:26.723Z,7.23
2017-10-09T04:13:54.271Z,7.17
2017-10-09T04:16:21.739Z,8.13
2017-10-09T04:18:49.236Z,7.90
2017-10-09T04:21:16.982Z,8.90
2017-10-09T04:23:45.921Z,9.13
2017-10-09T04:26:14.409Z,8.50
2017-10-09T04:28:44.171Z,8.83
2017-10-09T04:31:11.676Z,9.03
2017-10-09T04:33:39.176Z,8.83
2017-10-09T04:36:08.917Z,9.57
2017-10-09T04:38:36.439Z,8.83
2017-10-09T04:41:16.228Z,9.43
2017-10-09T04:43:44.214Z,9.70
2017-10-09T04:46:13.303Z,10.60
2017-10-09T04:48:45.190Z,10.07
2017-10-09T04:51:15.095Z,10.53
2017-10-09T04:53:42.696Z,10.27
2017-10-09T04:56:10.172Z,10.30
2017-10-09T05:04:30.320Z,10.00
2017-10-09T05:06:58.600Z,10.30
2017-10-09T05:09:28.924Z,9.83
2017-10-09T05:11:57.297Z,10.27
2017-10-09T05:14:24.821Z,10.10
2017-10-09T05:16:52.294Z,11.67
2017-10-09T05:19:19.758Z,10.57
2017-10-09T05:21:48.336Z,11.10
2017-10-09T05:24:15.835Z,12.20
2017-10-09T05:26:43.404Z,11.50
2017-10-09T05:29:20.849Z,13.00
2017-10-09T05:31:53.907Z,12.10
2017-10-09T05:34:22.334Z,12.40
2017-10-09T05:36:56.493Z,13.23
2017-10-09T05:39:23.960Z,11.80
2017-10-09T05:41:51.425Z,12.73
2017-10-09T05:47:29.595Z,12.90
2017-10-09T05:50:02.013Z,13.43
2017-10-09T05:52:52.135Z,12.80
2017-10-09T05:55:26.089Z,12.37
2017-10-09T05:57:53.608Z,12.80
2017-10-09T06:00:29.495Z,13.67
2017-10-09T06:03:03.177Z,14.77
2017-10-09T06:08:22.615Z,13.50
2017-10-09T06:10:50.100Z,14.30
2017-10-09T06:13:19.897Z,14.37
2017-10-09T06:15:47.372Z,17.27
2017-10-09T06:18:17.151Z,15.97
2017-10-09T06:20:44.596Z,14.23
2017-10-09T06:23:12.060Z,18.13
2017-10-09T06:25:39.524Z,16.23
2017-10-09T06:28:07.248Z,17.40
2017-10-09T06:30:38.160Z,15.60
2017-10-09T06:33:05.663Z,17.80
2017-10-09T06:35:33.178Z,15.73
2017-10-09T06:38:00.636Z,21.27
2017-10-09T06:43:19.623Z,18.00
2017-10-09T06:45:47.079Z,18.00
2017-10-09T06:48:14.772Z,16.20
2017-10-09T06:50:42.304Z,15.57
2017-10-09T06:53:11.021Z,19.70
2017-10-09T06:55:38.472Z,16.50
2017-10-09T06:58:06.724Z,17.93
2017-10-09T07:00:34.186Z,16.90
2017-10-09T07:03:01.634Z,15.43
2017-10-09T07:05:29.091Z,17.87
2017-10-09T07:07:57.195Z,15.87
2017-10-09T07:10:26.399Z,17.77
2017-10-09T07:12:54.488Z,17.07
2017-10-09T07:15:22.733Z,16.80
2017-10-09T07:17:50.948Z,18.40
2017-10-09T07:20:29.976Z,18.07
2017-10-09T07:22:58.224Z,16.57
2017-10-09T07:25:25.675Z,18.57
2017-10-09T07:27:53.350Z,20.47
2017-10-09T07:30:20.801Z,19.50
2017-10-09T07:32:49.759Z,18.20
2017-10-09T07:35:18.180Z,20.60
2017-10-09T07:37:45.631Z,16.10
2017-10-09T07:40:14.967Z,17.93
2017-10-09T07:42:43.584Z,17.20
2017-10-09T07:45:11.047Z,21.83
2017-10-09T07:47:38.504Z,20.20
2017-10-09T07:50:05.961Z,16.77
2017-10-09T07:52:33.747Z,19.50
2017-10-09T07:55:01.515Z,20.17
2017-10-09T07:57:29.404Z,21.93
2017-10-09T07:59:58.260Z,22.83
2017-10-09T08:02:25.699Z,18.40
2017-10-09T08:04:53.867Z,18.10
2017-10-09T08:07:21.716Z,17.87
2017-10-09T08:09:49.584Z,17.50
2017-10-09T08:12:17.035Z,16.80
2017-10-09T08:14:46.069Z,19.37
2017-10-09T08:17:13.568Z,17.00
2017-10-09T08:19:41.039Z,16.03
2017-10-09T08:22:08.480Z,19.30
2017-10-09T08:24:35.931Z,17.40
2017-10-09T08:27:04.177Z,22.20
2017-10-09T08:29:31.633Z,19.03
2017-10-09T08:31:59.088Z,18.70
2017-10-09T08:34:26.545Z,19.97
2017-10-09T08:36:53.999Z,24.10
2017-10-09T08:39:21.443Z,22.70
2017-10-09T08:42:01.616Z,18.03
2017-10-09T08:44:29.876Z,18.07
2017-10-09T08:46:57.328Z,19.50
2017-10-09T08:49:24.908Z,18.73
2017-10-09T08:51:53.128Z,20.73
2017-10-09T08:54:20.581Z,15.80
2017-10-09T08:56:48.040Z,15.33
2017-10-09T08:59:15.495Z,16.43
2017-10-09T09:01:43.943Z,19.50
2017-10-09T09:04:12.703Z,18.23
2017-10-09T09:06:40.152Z,15.10
2017-10-09T09:09:07.607Z,14.93
2017-10-09T09:11:35.064Z,12.30
2017-10-09T09:14:02.514Z,12.43
2017-10-09T09:16:31.511Z,12.70
2017-10-09T09:18:58.967Z,13.57
2017-10-09T09:21:26.431Z,11.57
2017-10-09T09:23:53.883Z,13.53
2017-10-09T09:26:21.655Z,20.00
2017-10-09T09:28:49.099Z,16.20
2017-10-09T09:31:16.561Z,13.07
2017-10-09T09:33:44.015Z,12.03
2017-10-09T09:36:11.459Z,13.50
2017-10-09T09:38:39.011Z,12.27
2017-10-09T09:41:06.463Z,10.80
2017-10-09T09:43:33.902Z,8.03
2017-10-09T09:46:02.111Z,8.60
2017-10-09T09:48:29.572Z,12.33
2017-10-09T09:50:57.023Z,13.07
2017-10-09T09:53:24.481Z,12.60
2017-10-09T09:55:51.936Z,11.60
2017-10-09T09:58:19.392Z,15.17
2017-10-09T10:00:46.848Z,12.37
2017-10-09T10:03:14.306Z,17.70
2017-10-09T10:05:41.763Z,13.73
2017-10-09T10:08:09.215Z,12.50
2017-10-09T10:10:36.675Z,13.17
2017-10-09T10:13:04.127Z,10.07
2017-10-09T10:15:31.588Z,13.00
2017-10-09T10:17:59.039Z,11.13
2017-10-09T10:20:26.500Z,13.00
2017-10-09T10:22:53.956Z,14.20
2017-10-09T10:25:21.399Z,14.03
2017-10-09T10:27:48.851Z,15.50
2017-10-09T10:30:16.298Z,14.43
2017-10-09T10:32:43.747Z,11.10
2017-10-09T10:35:11.199Z,10.47
2017-10-09T10:37:44.660Z,12.80
2017-10-09T10:40:12.871Z,11.60
2017-10-09T10:42:40.322Z,12.57
2017-10-09T10:45:08.080Z,14.10
2017-10-09T10:47:35.528Z,12.63
2017-10-09T10:50:02.969Z,9.80
2017-10-09T10:52:31.200Z,10.80
2017-10-09T10:54:58.644Z,9.67
2017-10-09T10:57:26.084Z,9.33
2017-10-09T10:59:53.543Z,9.40
2017-10-09T11:02:21.000Z,9.90
2017-10-09T11:04:48.456Z,10.93
2017-10-09T11:07:15.912Z,11.13
2017-10-09T11:09:43.370Z,9.90
2017-10-09T11:12:10.807Z,11.67
2017-10-09T11:14:38.259Z,13.60
2017-10-09T11:17:05.707Z,16.87
2017-10-09T11:19:35.763Z,10.57
2017-10-09T11:22:03.204Z,9.77
2017-10-09T11:24:30.663Z,11.53
2017-10-09T11:26:58.117Z,9.93
2017-10-09T11:29:25.560Z,11.20
2017-10-09T11:31:53.003Z,14.70
2017-10-09T11:34:21.219Z,13.80
2017-10-09T11:36:48.663Z,11.53
2017-10-09T11:39:16.115Z,12.43
2017-10-09T11:41:43.583Z,10.83
2017-10-09T11:44:11.051Z,8.30
2017-10-09T11:46:38.496Z,9.73
2017-10-09T11:49:05.942Z,16.03
2017-10-09T11:51:33.394Z,9.40
2017-10-09T11:54:01.607Z,11.57
2017-10-09T11:56:29.060Z,10.57
2017-10-09T11:58:56.512Z,10.40
2017-10-09T12:01:23.951Z,13.10
2017-10-09T12:03:51.415Z,11.90
2017-10-09T12:06:18.868Z,8.00
2017-10-09T12:08:46.331Z,10.73
2017-10-09T12:11:13.775Z,9.17
2017-10-09T12:13:41.218Z,12.67
2017-10-09T12:16:08.675Z,12.20
2017-10-09T12:18:36.115Z,9.37
2017-10-09T12:21:03.559Z,9.70
2017-10-09T12:23:31.975Z,9.30
2017-10-09T12:25:59.426Z,10.33
2017-10-09T12:28:26.883Z,12.17
2017-10-09T12:30:54.332Z,9.67
2017-10-09T12:33:21.798Z,12.83
2017-10-09T12:35:49.246Z,9.50
2017-10-09T12:38:16.708Z,9.40
2017-10-09T12:40:44.160Z,10.33
2017-10-09T12:43:11.616Z,7.77
2017-10-09T12:45:39.075Z,8.47
2017-10-09T12:48:06.511Z,10.63
2017-10-09T12:50:34.728Z,9.73
2017-10-09T12:53:02.171Z,7.63
2017-10-09T12:55:29.622Z,13.70
2017-10-09T12:57:57.071Z,10.50
2017-10-09T13:00:24.527Z,7.80
2017-10-09T13:02:51.979Z,8.13
2017-10-09T13:05:19.440Z,13.90
2017-10-09T13:07:46.895Z,10.97
2017-10-09T13:10:14.364Z,11.30
2017-10-09T13:12:41.803Z,7.90
2017-10-09T13:15:09.254Z,13.43
2017-10-09T13:17:36.702Z,11.90
2017-10-09T13:20:04.167Z,10.03
2017-10-09T13:22:31.638Z,11.83
2017-10-09T13:24:59.248Z,9.17
2017-10-09T13:27:26.723Z,9.57
2017-10-09T13:29:55.522Z,7.60
2017-10-09T13:32:22.984Z,11.83
2017-10-09T13:34:50.419Z,9.00
2017-10-09T13:37:17.867Z,7.63
2017-10-09T13:39:46.079Z,8.63
2017-10-09T13:42:13.535Z,7.20
2017-10-09T13:44:40.990Z,8.90
2017-10-09T13:47:08.448Z,9.80
2017-10-09T13:49:36.035Z,8.43
2017-10-09T13:52:03.496Z,7.07
2017-10-09T13:54:30.967Z,8.60
2017-10-09T13:56:58.950Z,8.87
2017-10-09T13:59:27.159Z,7.43
2017-10-09T14:01:54.640Z,15.40
2017-10-09T14:04:22.088Z,8.90
2017-10-09T14:06:49.539Z,8.50
2017-10-09T14:09:16.983Z,8.60
2017-10-09T14:11:44.423Z,22.90
2017-10-09T14:14:11.939Z,67.80
2017-10-09T14:16:39.387Z,8.57
2017-10-09T14:19:06.971Z,8.37
2017-10-09T14:21:35.199Z,9.37
2017-10-09T14:24:02.655Z,11.73
2017-10-09T14:26:30.104Z,10.00
2017-10-09T14:28:57.567Z,11.03
2017-10-09T14:41:15.639Z,7.00
2017-10-09T14:43:43.092Z,9.47
2017-10-09T14:46:11.308Z,10.20
2017-10-09T14:48:38.752Z,5.80
2017-10-09T14:51:06.258Z,10.63
2017-10-09T14:53:33.650Z,11.93
2017-10-09T14:56:01.210Z,18.13
2017-10-09T14:58:28.679Z,9.13
2017-10-09T15:00:56.123Z,8.70
2017-10-09T15:03:24.202Z,10.70
2017-10-09T15:05:52.885Z,6.80
2017-10-09T15:08:20.318Z,7.50
2017-10-09T15:10:47.808Z,8.40
2017-10-09T15:13:16.050Z,6.97
2017-10-09T15:15:43.591Z,8.10
2017-10-09T15:18:43.311Z,9.40
2017-10-09T15:39:34.037Z,7.10
2017-10-09T15:42:04.709Z,8.87
2017-10-09T15:44:32.413Z,7.27
2017-10-09T15:46:59.883Z,6.63
2017-10-09T15:59:24.416Z,6.87
2017-10-09T16:04:54.389Z,6.53
2017-10-09T16:10:17.384Z,9.30
2017-10-09T16:12:45.696Z,8.53
2017-10-09T16:15:13.509Z,7.60
2017-10-09T16:18:05.960Z,8.20
2017-10-09T16:20:33.944Z,6.27
2017-10-09T16:23:03.259Z,7.93
2017-10-09T16:25:32.567Z,5.33
2017-10-09T16:28:00.779Z,5.80
2017-10-09T16:30:30.498Z,5.80
2017-10-09T16:32:59.494Z,8.97
2017-10-09T16:35:28.861Z,6.77
2017-10-09T16:37:57.513Z,7.40
2017-10-09T16:40:25.457Z,5.90
2017-10-09T16:42:55.013Z,6.40
2017-10-09T16:45:26.133Z,8.20
2017-10-09T16:47:53.588Z,6.70
2017-10-09T16:50:21.032Z,11.87
2017-10-09T16:52:50.697Z,6.87
2017-10-09T16:55:18.276Z,8.03
2017-10-09T16:57:45.723Z,7.63
2017-10-09T17:00:13.172Z,6.70
2017-10-09T17:02:41.152Z,6.90
2017-10-09T17:05:08.599Z,9.73
2017-10-09T17:07:36.903Z,5.73
2017-10-09T17:10:04.340Z,6.33
2017-10-09T17:12:31.783Z,9.97
2017-10-09T17:14:59.867Z,6.30
2017-10-09T17:17:27.310Z,6.07
2017-10-09T17:19:54.762Z,6.10
2017-10-09T17:22:22.229Z,11.03
2017-10-09T17:24:49.820Z,9.10
2017-10-09T17:27:17.278Z,9.00
2017-10-09T17:29:45.172Z,9.47
2017-10-09T17:32:13.907Z,7.67
2017-10-09T17:34:41.351Z,9.27
2017-10-09T17:37:08.803Z,8.00
2017-10-09T17:39:37.075Z,10.37
2017-10-09T17:42:04.519Z,14.60
2017-10-09T17:44:33.582Z,19.40
2017-10-09T17:47:01.025Z,11.90
2017-10-09T17:49:28.476Z,9.97
2017-10-09T17:51:55.953Z,13.63
2017-10-09T17:54:25.076Z,9.00
2017-10-09T17:56:52.535Z,10.33
2017-10-09T17:59:19.985Z,8.77
2017-10-09T18:01:47.449Z,8.90
2017-10-09T18:04:14.920Z,6.67
2017-10-09T18:06:42.379Z,7.47
2017-10-09T18:09:10.094Z,6.80
2017-10-09T18:11:38.312Z,8.93
2017-10-09T18:14:06.492Z,6.97
2017-10-09T18:16:33.944Z,11.70
2017-10-09T18:19:02.907Z,9.67
2017-10-09T18:21:32.881Z,6.77
2017-10-09T18:24:00.339Z,10.67
2017-10-09T18:26:27.783Z,7.73
2017-10-09T18:28:56.015Z,6.80
2017-10-09T18:31:23.515Z,6.70
2017-10-09T18:33:51.038Z,6.60
2017-10-09T18:36:22.552Z,6.43
2017-10-09T18:38:49.992Z,7.23
2017-10-09T18:41:18.954Z,6.77
2017-10-09T18:43:47.682Z,8.83
2017-10-09T18:46:15.308Z,5.20
2017-10-09T18:48:42.776Z,6.17
2017-10-09T18:51:10.232Z,5.67
2017-10-09T18:53:37.707Z,9.17
2017-10-09T18:56:05.167Z,17.03
2017-10-09T18:58:33.761Z,12.77
2017-10-09T19:01:03.510Z,12.23
2017-10-09T19:03:31.983Z,9.77
2017-10-09T19:06:01.188Z,9.87
2017-10-09T19:08:28.743Z,8.87
2017-10-09T19:10:56.459Z,8.23
2017-10-09T19:13:24.226Z,8.17
2017-10-09T19:15:51.684Z,8.60
2017-10-09T19:18:23.111Z,8.83
2017-10-09T19:20:50.685Z,7.40
2017-10-09T19:23:19.070Z,6.37
2017-10-09T19:25:47.316Z,7.67
2017-10-09T19:28:15.476Z,7.33
2017-10-09T19:30:50.801Z,5.90
2017-10-09T19:33:18.259Z,7.23
2017-10-09T19:35:47.821Z,10.70
2017-10-09T19:38:15.280Z,6.70
2017-10-09T19:40:45.313Z,7.40
2017-10-09T19:43:12.777Z,9.60
2017-10-09T19:45:40.881Z,6.07
2017-10-09T19:48:10.350Z,5.03
2017-10-09T19:50:37.809Z,5.53
2017-10-09T19:53:07.243Z,7.10
2017-10-09T19:55:38.523Z,5.60
2017-10-09T20:07:52.699Z,4.43
